createdAt,value
2019-03-12T00:01:38.018Z,12.77
2019-03-12T00:04:22.621Z,8.27
2019-03-12T00:07:07.341Z,13.33
2019-03-12T00:09:53.789Z,9.93
2019-03-12T00:12:38.688Z,9.63
2019-03-12T00:15:23.658Z,11.50
2019-03-12T00:18:08.250Z,14.50
2019-03-12T00:20:53.231Z,11.67
2019-03-12T00:23:38.041Z,15.07
2019-03-12T00:26:23.091Z,14.37
2019-03-12T00:29:07.621Z,15.80
2019-03-12T00:31:52.258Z,12.93
2019-03-12T00:34:37.329Z,16.07
2019-03-12T00:37:21.824Z,14.07
2019-03-12T00:40:07.753Z,24.67
2019-03-12T00:42:52.444Z,13.47
2019-03-12T00:45:37.214Z,19.30
2019-03-12T00:48:21.593Z,15.40
2019-03-12T00:51:06.259Z,10.63
2019-03-12T00:53:50.625Z,13.07
2019-03-12T00:56:35.358Z,13.47
2019-03-12T00:59:19.821Z,12.17
2019-03-12T01:02:04.548Z,12.50
2019-03-12T01:04:49.211Z,11.77
2019-03-12T01:07:34.299Z,14.70
2019-03-12T01:10:19.435Z,17.70
2019-03-12T01:13:10.992Z,12.00
2019-03-12T01:15:55.935Z,16.80
2019-03-12T01:18:41.228Z,14.13
2019-03-12T01:21:26.025Z,14.87
2019-03-12T01:24:11.734Z,17.53
2019-03-12T01:26:56.188Z,13.33
2019-03-12T01:29:40.865Z,15.80
2019-03-12T01:32:25.360Z,15.67
2019-03-12T01:35:10.749Z,13.10
2019-03-12T01:37:55.320Z,14.70
2019-03-12T01:40:40.143Z,12.90
2019-03-12T01:43:25.020Z,16.77
2019-03-12T01:46:09.631Z,15.40
2019-03-12T01:48:54.675Z,9.50
2019-03-12T01:51:39.010Z,18.03
2019-03-12T01:54:23.690Z,12.83
2019-03-12T01:57:08.405Z,13.83
2019-03-12T01:59:52.877Z,10.13
2019-03-12T02:02:37.511Z,15.87
2019-03-12T02:05:22.080Z,18.30
2019-03-12T02:08:07.013Z,19.97
2019-03-12T02:10:51.960Z,18.80
2019-03-12T02:13:36.277Z,16.00
2019-03-12T02:16:20.735Z,18.70
2019-03-12T02:19:05.409Z,20.50
2019-03-12T02:21:50.181Z,13.80
2019-03-12T02:24:35.064Z,16.07
2019-03-12T02:27:19.523Z,17.73
2019-03-12T02:30:07.499Z,18.87
2019-03-12T02:32:52.241Z,15.67
2019-03-12T02:35:36.613Z,15.77
2019-03-12T02:38:21.421Z,19.43
2019-03-12T02:41:06.292Z,14.13
2019-03-12T02:43:50.967Z,18.97
2019-03-12T02:46:35.504Z,16.13
2019-03-12T02:49:20.205Z,18.00
2019-03-12T02:52:05.089Z,17.30
2019-03-12T02:54:49.807Z,20.73
2019-03-12T02:57:34.294Z,26.70
2019-03-12T03:00:21.589Z,17.23
2019-03-12T03:03:06.778Z,25.57
2019-03-12T03:05:53.366Z,19.43
2019-03-12T03:08:38.337Z,20.10
2019-03-12T03:11:23.417Z,20.63
2019-03-12T03:14:29.927Z,17.43
2019-03-12T03:17:15.154Z,20.93
2019-03-12T03:19:59.643Z,20.57
2019-03-12T03:22:44.275Z,22.53
2019-03-12T03:25:28.893Z,25.83
2019-03-12T03:28:13.335Z,20.73
2019-03-12T03:30:58.512Z,17.67
2019-03-12T03:33:43.124Z,19.97
2019-03-12T03:36:28.315Z,20.17
2019-03-12T03:39:13.282Z,23.50
2019-03-12T03:41:58.450Z,20.87
2019-03-12T03:44:43.339Z,17.77
2019-03-12T03:47:28.029Z,19.00
2019-03-12T03:50:14.275Z,20.83
2019-03-12T03:52:58.984Z,15.37
2019-03-12T03:55:43.821Z,18.93
2019-03-12T03:58:28.548Z,24.63
2019-03-12T04:01:13.481Z,16.60
2019-03-12T04:03:57.909Z,15.33
2019-03-12T04:06:42.375Z,17.40
2019-03-12T04:09:27.017Z,23.30
2019-03-12T04:12:12.033Z,22.67
2019-03-12T04:14:56.469Z,18.57
2019-03-12T04:17:41.174Z,19.37
2019-03-12T04:20:26.211Z,23.37
2019-03-12T04:23:10.624Z,22.70
2019-03-12T04:25:55.479Z,18.07
2019-03-12T04:28:40.588Z,18.57
2019-03-12T04:31:25.642Z,16.47
2019-03-12T04:34:10.743Z,18.67
2019-03-12T04:36:55.396Z,16.17
2019-03-12T04:39:39.960Z,18.80
2019-03-12T04:42:24.593Z,15.80
2019-03-12T04:45:14.940Z,16.93
2019-03-12T04:47:59.563Z,17.83
2019-03-12T04:50:44.122Z,18.77
2019-03-12T04:53:28.375Z,18.60
2019-03-12T04:56:12.958Z,15.97
2019-03-12T04:58:57.692Z,15.23
2019-03-12T05:01:42.222Z,9.30
2019-03-12T05:04:26.688Z,14.13
2019-03-12T05:07:11.410Z,14.78
2019-03-12T05:09:56.527Z,15.67
2019-03-12T05:12:40.987Z,14.83
2019-03-12T05:15:26.003Z,13.53
2019-03-12T05:18:10.686Z,14.33
2019-03-12T05:20:55.272Z,13.97
2019-03-12T05:23:39.745Z,12.63
2019-03-12T05:26:24.364Z,11.57
2019-03-12T05:29:08.993Z,13.20
2019-03-12T05:31:53.837Z,8.97
2019-03-12T05:34:38.893Z,12.03
2019-03-12T05:37:23.452Z,11.93
2019-03-12T05:40:11.522Z,12.90
2019-03-12T05:42:56.271Z,9.13
2019-03-12T05:45:40.858Z,12.83
2019-03-12T05:48:25.252Z,11.73
2019-03-12T05:51:09.666Z,13.97
2019-03-12T05:53:54.341Z,10.23
2019-03-12T05:56:39.260Z,12.23
2019-03-12T05:59:24.001Z,15.80
2019-03-12T06:02:08.387Z,12.80
2019-03-12T06:04:53.021Z,15.83
2019-03-12T06:07:37.669Z,15.57
2019-03-12T06:10:22.772Z,14.23
2019-03-12T06:13:07.384Z,16.40
2019-03-12T06:15:53.321Z,15.87
2019-03-12T06:18:37.948Z,14.27
2019-03-12T06:21:22.480Z,17.47
2019-03-12T06:24:07.546Z,14.97
2019-03-12T06:26:52.412Z,13.87
2019-03-12T06:29:37.039Z,16.07
2019-03-12T06:32:26.773Z,12.70
2019-03-12T06:35:12.697Z,12.13
2019-03-12T06:37:59.301Z,17.70
2019-03-12T06:40:51.676Z,12.20
2019-03-12T06:43:38.336Z,18.87
2019-03-12T06:46:34.068Z,16.00
2019-03-12T06:49:23.661Z,14.57
2019-03-12T06:52:10.078Z,15.33
2019-03-12T06:55:08.358Z,13.13
2019-03-12T06:58:20.648Z,14.90
2019-03-12T07:01:09.852Z,14.30
2019-03-12T07:04:02.228Z,16.53
2019-03-12T07:06:54.279Z,16.57
2019-03-12T07:09:40.607Z,14.00
2019-03-12T07:12:39.228Z,13.73
2019-03-12T07:15:25.806Z,13.73
2019-03-12T07:18:12.258Z,16.63
2019-03-12T07:21:15.263Z,10.70
2019-03-12T07:24:13.747Z,11.77
2019-03-12T07:27:06.082Z,13.23
2019-03-12T07:30:12.911Z,12.73
2019-03-12T07:33:09.967Z,12.40
2019-03-12T07:36:02.389Z,11.43
2019-03-12T07:38:52.056Z,13.73
2019-03-12T07:41:54.797Z,9.87
2019-03-12T07:44:47.117Z,13.63
2019-03-12T07:47:51.582Z,11.80
2019-03-12T07:50:41.419Z,14.83
2019-03-12T07:53:28.431Z,11.77
2019-03-12T07:56:20.752Z,12.40
2019-03-12T07:59:13.006Z,10.33
2019-03-12T08:02:08.079Z,14.73
2019-03-12T08:05:10.676Z,13.03
2019-03-12T08:07:59.923Z,18.20
2019-03-12T08:10:55.213Z,10.97
2019-03-12T08:13:50.842Z,10.53
2019-03-12T08:16:37.182Z,10.20
2019-03-12T08:19:29.482Z,10.90
2019-03-12T08:22:16.292Z,9.43
2019-03-12T08:25:05.938Z,10.57
2019-03-12T08:27:52.403Z,11.47
2019-03-12T08:30:44.692Z,11.10
2019-03-12T08:33:50.916Z,9.70
2019-03-12T08:36:47.937Z,12.70
2019-03-12T08:39:34.408Z,8.80
2019-03-12T08:42:32.519Z,7.97
2019-03-12T08:45:19.074Z,9.70
2019-03-12T08:48:05.913Z,7.43
2019-03-12T08:50:52.354Z,9.97
2019-03-12T08:53:55.307Z,8.67
2019-03-12T08:56:44.521Z,8.80
2019-03-12T08:59:34.118Z,10.20
2019-03-12T09:02:26.251Z,10.37
2019-03-12T09:05:12.800Z,12.00
2019-03-12T09:08:08.136Z,9.77
2019-03-12T09:11:00.424Z,9.73
2019-03-12T09:13:46.856Z,12.70
2019-03-12T09:16:39.145Z,9.23
2019-03-12T09:19:31.272Z,5.43
2019-03-12T09:22:23.676Z,9.57
2019-03-12T09:25:15.873Z,8.83
2019-03-12T09:28:18.683Z,7.63
2019-03-12T09:31:05.342Z,7.93
2019-03-12T09:33:51.822Z,10.20
2019-03-12T09:36:44.386Z,10.47
2019-03-12T09:39:39.661Z,7.33
2019-03-12T09:42:42.901Z,9.37
2019-03-12T09:45:47.297Z,6.07
2019-03-12T09:48:34.628Z,9.03
2019-03-12T09:51:24.046Z,9.73
2019-03-12T09:54:10.646Z,9.17
2019-03-12T09:56:57.695Z,9.30
2019-03-12T09:59:46.823Z,8.03
2019-03-12T10:02:48.064Z,7.33
2019-03-12T10:05:46.340Z,8.20
2019-03-12T10:08:38.515Z,7.77
2019-03-12T10:11:30.680Z,10.93
2019-03-12T10:14:25.803Z,9.93
2019-03-12T10:17:27.505Z,9.57
2019-03-12T10:20:30.314Z,11.77
2019-03-12T10:23:34.633Z,10.43
2019-03-12T10:26:36.622Z,10.37
2019-03-12T10:29:32.026Z,10.90
2019-03-12T10:32:30.902Z,8.20
2019-03-12T10:35:26.188Z,9.40
2019-03-12T10:38:39.486Z,9.53
2019-03-12T10:41:31.373Z,9.47
2019-03-12T10:44:21.127Z,14.03
2019-03-12T10:47:10.187Z,10.93
2019-03-12T10:49:54.601Z,10.43
2019-03-12T10:52:39.275Z,8.73
2019-03-12T10:55:23.886Z,13.70
2019-03-12T10:58:08.572Z,10.23
2019-03-12T11:00:53.507Z,9.40
2019-03-12T11:03:38.092Z,10.03
2019-03-12T11:06:23.291Z,9.37
2019-03-12T11:09:08.222Z,9.20
2019-03-12T11:11:52.948Z,8.00
2019-03-12T11:14:38.034Z,8.67
2019-03-12T11:17:22.652Z,7.87
2019-03-12T11:20:10.780Z,8.27
2019-03-12T11:22:55.835Z,7.87
2019-03-12T11:25:41.306Z,10.97
2019-03-12T11:28:26.838Z,11.17
2019-03-12T11:31:12.252Z,9.03
2019-03-12T11:33:57.268Z,11.83
2019-03-12T11:36:42.142Z,8.90
2019-03-12T11:39:26.897Z,8.20
2019-03-12T11:42:11.471Z,8.80
2019-03-12T11:44:56.147Z,8.53
2019-03-12T11:47:41.097Z,9.80
2019-03-12T11:50:26.039Z,7.63
2019-03-12T11:53:10.678Z,8.80
2019-03-12T11:55:55.413Z,10.93
2019-03-12T11:58:40.360Z,12.50
2019-03-12T12:01:25.326Z,10.87
2019-03-12T12:04:10.385Z,9.97
2019-03-12T12:06:55.337Z,8.67
2019-03-12T12:09:40.325Z,9.57
2019-03-12T12:12:24.955Z,9.37
2019-03-12T12:15:10.873Z,9.03
2019-03-12T12:17:55.733Z,10.73
2019-03-12T12:20:40.872Z,11.57
2019-03-12T12:23:25.586Z,8.57
2019-03-12T12:26:10.662Z,9.93
2019-03-12T12:28:55.151Z,9.30
2019-03-12T12:31:39.559Z,10.23
2019-03-12T12:34:24.392Z,9.80
2019-03-12T12:37:09.380Z,9.70
2019-03-12T12:39:54.412Z,7.93
2019-03-12T12:42:39.529Z,9.13
2019-03-12T12:45:30.381Z,8.53
2019-03-12T12:48:15.466Z,9.63
2019-03-12T12:51:03.380Z,7.67
2019-03-12T12:53:47.195Z,12.70
2019-03-12T12:56:32.213Z,7.53
2019-03-12T12:59:16.763Z,8.17
2019-03-12T13:02:01.850Z,9.03
2019-03-12T13:04:46.672Z,9.50
2019-03-12T13:07:31.676Z,8.47
2019-03-12T13:10:24.971Z,9.50
2019-03-12T13:13:09.991Z,8.00
2019-03-12T13:15:54.472Z,7.27
2019-03-12T13:18:39.044Z,5.90
2019-03-12T13:21:23.714Z,8.40
2019-03-12T13:24:08.164Z,8.40
2019-03-12T13:26:53.135Z,5.77
2019-03-12T13:29:37.813Z,8.20
2019-03-12T13:32:22.423Z,7.90
2019-03-12T13:35:09.515Z,7.30
2019-03-12T13:37:54.147Z,7.67
2019-03-12T13:40:39.132Z,9.17
2019-03-12T13:43:23.828Z,9.20
2019-03-12T13:46:08.759Z,8.90
2019-03-12T13:48:53.728Z,10.07
2019-03-12T13:51:38.431Z,8.23
2019-03-12T13:54:23.384Z,7.80
2019-03-12T13:57:08.010Z,10.17
2019-03-12T13:59:53.133Z,7.87
2019-03-12T14:02:37.673Z,7.03
2019-03-12T14:05:22.213Z,6.37
2019-03-12T14:08:06.695Z,6.93
2019-03-12T14:10:51.576Z,5.67
2019-03-12T14:13:36.353Z,5.67
2019-03-12T14:16:21.491Z,6.10
2019-03-12T14:19:06.534Z,10.67
2019-03-12T14:21:51.965Z,6.87
2019-03-12T14:24:37.050Z,5.83
2019-03-12T14:27:22.008Z,9.83
2019-03-12T14:30:08.162Z,5.70
2019-03-12T14:32:53.622Z,6.73
2019-03-12T14:35:50.461Z,5.60
2019-03-12T14:38:25.299Z,8.40
2019-03-12T14:41:10.259Z,5.93
2019-03-12T14:43:55.639Z,4.13
2019-03-12T14:46:40.618Z,7.90
2019-03-12T14:49:25.818Z,7.53
2019-03-12T14:52:10.955Z,6.27
2019-03-12T14:54:55.841Z,4.97
2019-03-12T14:57:40.852Z,6.43
2019-03-12T15:00:25.891Z,6.13
2019-03-12T15:03:10.637Z,5.77
2019-03-12T15:05:55.550Z,5.73
2019-03-12T15:08:40.231Z,7.07
2019-03-12T15:11:25.352Z,7.10
2019-03-12T15:14:10.280Z,5.60
2019-03-12T15:16:55.446Z,6.00
2019-03-12T15:19:40.401Z,5.43
2019-03-12T15:22:25.325Z,8.07
2019-03-12T15:25:11.503Z,5.60
2019-03-12T15:27:56.571Z,7.70
2019-03-12T15:30:41.330Z,5.97
2019-03-12T15:33:26.274Z,6.40
2019-03-12T15:36:10.986Z,7.20
2019-03-12T15:38:55.896Z,9.17
2019-03-12T15:41:40.586Z,6.90
2019-03-12T15:44:25.115Z,4.80
2019-03-12T15:47:09.881Z,6.37
2019-03-12T15:49:54.697Z,8.13
2019-03-12T15:52:39.352Z,6.30
2019-03-12T15:55:23.958Z,5.90
2019-03-12T15:58:08.531Z,7.47
2019-03-12T16:00:53.249Z,5.47
2019-03-12T16:03:38.243Z,6.73
2019-03-12T16:06:26.203Z,5.13
2019-03-12T16:09:10.439Z,7.87
2019-03-12T16:11:55.422Z,6.13
2019-03-12T16:14:40.369Z,10.30
2019-03-12T16:17:24.921Z,5.03
2019-03-12T16:20:17.354Z,9.27
2019-03-12T16:23:01.903Z,7.57
2019-03-12T16:25:46.642Z,9.70
2019-03-12T16:28:31.439Z,7.53
2019-03-12T16:31:16.475Z,10.10
2019-03-12T16:34:01.835Z,5.77
2019-03-12T16:36:46.757Z,6.50
2019-03-12T16:39:32.050Z,5.67
2019-03-12T16:42:17.012Z,5.53
2019-03-12T16:45:03.841Z,5.77
2019-03-12T16:47:48.744Z,5.97
2019-03-12T16:50:34.005Z,7.57
2019-03-12T16:53:19.036Z,6.17
2019-03-12T16:56:04.074Z,6.77
2019-03-12T16:58:49.171Z,5.77
2019-03-12T17:01:34.339Z,6.53
2019-03-12T17:04:19.584Z,4.77
2019-03-12T17:07:06.721Z,6.60
2019-03-12T17:09:52.096Z,6.47
2019-03-12T17:12:38.246Z,6.37
2019-03-12T17:15:26.164Z,7.80
2019-03-12T17:18:11.045Z,8.27
2019-03-12T17:20:55.879Z,6.63
2019-03-12T17:23:40.904Z,4.90
2019-03-12T17:26:26.045Z,6.53
2019-03-12T17:29:11.009Z,8.73
2019-03-12T17:31:55.952Z,5.57
2019-03-12T17:34:41.104Z,5.83
2019-03-12T17:37:25.709Z,8.47
2019-03-12T17:40:19.345Z,6.67
2019-03-12T17:43:04.932Z,4.93
2019-03-12T17:45:50.042Z,5.30
2019-03-12T17:48:34.871Z,7.17
2019-03-12T17:51:19.599Z,6.53
2019-03-12T17:54:04.750Z,7.93
2019-03-12T17:56:49.973Z,7.80
2019-03-12T17:59:34.997Z,10.83
2019-03-12T18:02:20.081Z,5.87
2019-03-12T18:05:07.823Z,5.00
2019-03-12T18:07:52.567Z,8.70
2019-03-12T18:10:37.515Z,6.43
2019-03-12T18:13:22.829Z,7.47
2019-03-12T18:16:08.252Z,7.77
2019-03-12T18:18:53.098Z,6.43
2019-03-12T18:21:38.138Z,8.70
2019-03-12T18:24:23.185Z,5.23
2019-03-12T18:27:08.577Z,16.73
2019-03-12T18:29:53.882Z,7.70
2019-03-12T18:32:38.967Z,8.87
2019-03-12T18:35:23.957Z,6.60
2019-03-12T18:38:09.519Z,7.83
2019-03-12T18:40:54.733Z,7.03
2019-03-12T18:43:39.679Z,6.27
2019-03-12T18:46:24.546Z,5.40
2019-03-12T18:49:09.816Z,8.10
2019-03-12T18:51:54.785Z,5.70
2019-03-12T18:54:40.140Z,9.47
2019-03-12T18:57:24.961Z,5.80
2019-03-12T19:00:12.886Z,5.23
2019-03-12T19:02:58.109Z,8.83
2019-03-12T19:05:43.103Z,6.33
2019-03-12T19:08:28.264Z,6.10
2019-03-12T19:11:13.206Z,4.70
2019-03-12T19:13:58.944Z,5.20
2019-03-12T19:16:43.940Z,5.13
2019-03-12T19:19:29.047Z,6.13
2019-03-12T19:22:13.873Z,4.77
2019-03-12T19:24:58.527Z,7.80
2019-03-12T19:27:43.704Z,5.13
2019-03-12T19:30:28.673Z,5.97
2019-03-12T19:33:15.333Z,7.83
2019-03-12T19:36:00.289Z,4.47
2019-03-12T19:38:45.568Z,5.53
2019-03-12T19:41:30.942Z,4.40
2019-03-12T19:44:15.675Z,5.50
2019-03-12T19:47:00.786Z,4.83
2019-03-12T19:49:45.353Z,5.53
2019-03-12T19:52:30.729Z,5.53
2019-03-12T19:55:24.755Z,4.43
2019-03-12T19:58:09.802Z,3.20
2019-03-12T20:00:54.949Z,3.50
2019-03-12T20:03:39.895Z,3.67
2019-03-12T20:06:24.769Z,3.73
2019-03-12T20:09:12.518Z,4.50
2019-03-12T20:12:01.185Z,4.10
2019-03-12T20:15:12.569Z,3.40
2019-03-12T20:18:07.352Z,3.43
2019-03-12T20:21:25.298Z,3.93
2019-03-12T20:24:47.195Z,2.47
2019-03-12T20:27:47.895Z,4.17
2019-03-12T20:31:02.638Z,5.83
2019-03-12T20:34:22.764Z,5.30
2019-03-12T20:37:44.784Z,5.83
2019-03-12T20:40:45.389Z,3.27
2019-03-12T20:43:34.333Z,7.17
2019-03-12T20:46:28.629Z,3.17
2019-03-12T20:49:20.466Z,5.63
2019-03-12T20:52:18.375Z,3.50
2019-03-12T20:55:12.950Z,3.73
2019-03-12T20:58:32.505Z,3.30
2019-03-12T21:01:28.037Z,5.23
2019-03-12T21:04:42.677Z,4.00
2019-03-12T21:07:57.290Z,3.43
2019-03-12T21:11:07.119Z,4.53
2019-03-12T21:14:21.666Z,2.70
2019-03-12T21:17:29.891Z,3.30
2019-03-12T21:20:21.850Z,3.10
2019-03-12T21:23:25.399Z,4.07
2019-03-12T21:26:28.623Z,2.40
2019-03-12T21:29:29.309Z,2.27
2019-03-12T21:32:15.591Z,3.17
2019-03-12T21:35:00.499Z,3.93
2019-03-12T21:37:45.414Z,4.13
2019-03-12T21:40:30.579Z,3.80
2019-03-12T21:43:15.456Z,4.07
2019-03-12T21:46:00.759Z,4.10
2019-03-12T21:48:45.700Z,5.67
2019-03-12T21:51:30.283Z,4.37
2019-03-12T21:54:15.294Z,3.67
2019-03-12T21:57:00.381Z,2.43
2019-03-12T21:59:45.482Z,3.83
2019-03-12T22:02:30.331Z,2.37
2019-03-12T22:05:15.206Z,4.73
2019-03-12T22:08:00.071Z,6.53
2019-03-12T22:10:45.309Z,3.00
2019-03-12T22:13:30.349Z,4.33
2019-03-12T22:16:15.394Z,3.57
2019-03-12T22:19:00.453Z,3.60
2019-03-12T22:21:49.783Z,2.67
2019-03-12T22:24:34.345Z,3.00
2019-03-12T22:27:18.870Z,6.10
2019-03-12T22:30:07.175Z,4.67
2019-03-12T22:32:51.959Z,3.53
2019-03-12T22:35:36.522Z,2.50
2019-03-12T22:38:21.687Z,4.90
2019-03-12T22:41:06.784Z,3.23
2019-03-12T22:43:51.812Z,3.13
2019-03-12T22:46:36.894Z,3.83
2019-03-12T22:49:21.687Z,4.53
2019-03-12T22:52:06.541Z,3.87
2019-03-12T22:54:51.358Z,3.10
2019-03-12T22:57:36.654Z,5.13
2019-03-12T23:00:21.719Z,4.17
2019-03-12T23:03:06.922Z,1.73
2019-03-12T23:05:51.824Z,0.93
2019-03-12T23:08:37.010Z,1.10
2019-03-12T23:11:22.018Z,2.10
2019-03-12T23:14:07.025Z,1.77
2019-03-12T23:16:52.108Z,1.23
2019-03-12T23:19:36.851Z,1.03
2019-03-12T23:22:21.763Z,1.17
2019-03-12T23:25:08.072Z,1.33
2019-03-12T23:27:52.904Z,0.90
2019-03-12T23:30:37.477Z,1.07
2019-03-12T23:33:22.446Z,1.30
2019-03-12T23:36:07.456Z,1.30
2019-03-12T23:38:52.230Z,1.80
2019-03-12T23:41:36.869Z,2.43
2019-03-12T23:44:21.498Z,2.43
2019-03-12T23:47:06.461Z,2.10
2019-03-12T23:49:51.273Z,2.70
2019-03-12T23:52:36.157Z,3.77
2019-03-12T23:55:21.443Z,4.17
2019-03-12T23:58:06.277Z,4.77
